YVR weather

Public forecast

Using degrees Celsius for public forecast. Weather courtesy of forecast.io.

Current aviation weather report (METAR) for Vancouver International Airport

Retrieved 2020/08/10 10:00 UTC (56 minutes ago):

CYVR 101000Z 00000KT 20SM SKC 15/12 A3016 RMK SLP214

Aviation forecast (TAF) for Vancouver International Airport

Retrieved 2020/08/10 09:41 UTC (1 hour ago):

TAF CYVR 100838Z 1009/1112 09005KT P6SM SKC FM101200 10007KT P6SM FEW008 SCT015 BKN030 TEMPO 1012/1018 SCT008 BKN015 FM101800 26008KT P6SM SCT030 TEMPO 1018/1020 BKN030 FM102200 28012KT P6SM FEW050 BECMG 1106/1108 32007KT RMK NXT FCST BY 101200Z